Time;durP1;ratioP1;P1;durP2;ratioP2;P2;SDS_P1;SDS_P2;PMS_P1;PMS_P2;Temp;Humidity;BMP_temperature;BMP_pressure;BME280_temperature;BME280_humidity;BME280_pressure;Samples;Min_cycle;Max_cycle;Signal;HPM_P1;HPM_P2
2021/10/08 00:00:36;;;;;;;24.30;13.52;;;;;;;10.73;46.50;102218.66;3378181;29;20138;-75
2021/10/08 00:02:17;;;;;;;27.27;12.35;;;;;;;10.75;46.82;102216.72;3390269;29;20048;-76
2021/10/08 00:03:58;;;;;;;25.10;13.43;;;;;;;10.77;46.88;102220.09;3375541;29;20036;-76
2021/10/08 00:05:38;;;;;;;25.08;13.02;;;;;;;10.75;46.95;102213.22;3376092;29;20142;-75
2021/10/08 00:07:19;;;;;;;18.30;12.02;;;;;;;10.77;47.05;102220.09;3376362;29;20138;-77
2021/10/08 00:08:59;;;;;;;23.60;13.05;;;;;;;10.81;47.09;102226.84;3378280;29;20056;-77
2021/10/08 00:10:40;;;;;;;25.38;12.05;;;;;;;10.86;46.89;102213.13;3378002;29;20138;-75
2021/10/08 00:12:21;;;;;;;20.10;12.13;;;;;;;10.87;46.85;102218.31;3375691;29;20040;-76
2021/10/08 00:14:03;;;;;;;22.45;12.05;;;;;;;10.88;46.87;102216.50;3376522;29;20052;-74
2021/10/08 00:15:43;;;;;;;18.40;12.60;;;;;;;10.89;46.79;102212.84;3375512;29;20045;-74
2021/10/08 00:17:24;;;;;;;18.52;10.50;;;;;;;10.91;46.73;102217.06;3377096;29;20131;-75
2021/10/08 00:19:05;;;;;;;19.92;12.25;;;;;;;10.88;46.72;102214.66;3377232;29;20047;-74
2021/10/08 00:20:46;;;;;;;20.05;12.35;;;;;;;10.86;46.69;102215.78;3377051;29;20067;-75
2021/10/08 00:22:26;;;;;;;21.30;11.68;;;;;;;10.82;47.03;102220.56;3376929;29;20048;-77
2021/10/08 00:24:07;;;;;;;20.23;12.45;;;;;;;10.82;46.94;102225.88;3377146;29;20047;-76
2021/10/08 00:25:48;;;;;;;19.63;12.23;;;;;;;10.84;47.04;102212.41;3375016;29;20041;-74
2021/10/08 00:27:28;;;;;;;18.27;11.52;;;;;;;10.84;47.32;102215.06;3376913;29;20059;-77
2021/10/08 00:29:10;;;;;;;20.00;12.10;;;;;;;10.85;47.17;102222.09;3376835;29;20415;-78
2021/10/08 00:30:51;;;;;;;17.30;11.73;;;;;;;10.87;47.22;102221.00;3361007;29;20136;-75
2021/10/08 00:32:31;;;;;;;22.30;11.65;;;;;;;10.86;47.17;102219.28;3373911;29;20051;-76
2021/10/08 00:34:12;;;;;;;17.58;10.30;;;;;;;10.86;46.89;102215.78;3376593;29;20067;-76
2021/10/08 00:35:53;;;;;;;21.33;12.73;;;;;;;10.88;47.11;102219.16;3373300;29;20045;-76
2021/10/08 00:37:33;;;;;;;18.13;11.15;;;;;;;10.84;47.16;102210.59;3372857;29;20531;-75
2021/10/08 00:39:14;;;;;;;21.17;12.13;;;;;;;10.90;47.20;102231.41;3376454;29;20048;-76
2021/10/08 00:40:55;;;;;;;22.52;11.18;;;;;;;10.90;47.18;102220.72;3376714;29;20045;-74
2021/10/08 00:42:36;;;;;;;19.85;10.75;;;;;;;10.88;47.16;102220.00;3376898;29;20096;-74
2021/10/08 00:44:16;;;;;;;19.50;12.20;;;;;;;10.86;47.16;102227.28;3376779;29;20072;-73
2021/10/08 00:45:57;;;;;;;19.45;10.95;;;;;;;10.84;47.26;102226.59;3374042;29;20048;-75
2021/10/08 00:47:38;;;;;;;20.30;10.38;;;;;;;10.85;47.19;102228.28;3376435;29;20044;-74
2021/10/08 00:49:18;;;;;;;21.60;10.45;;;;;;;10.83;47.12;102230.22;3376683;29;20145;-74
2021/10/08 00:50:59;;;;;;;19.08;10.95;;;;;;;10.81;47.09;102224.19;3401903;29;20047;-74
2021/10/08 00:52:40;;;;;;;16.98;10.93;;;;;;;10.82;47.18;102228.56;3381450;29;20420;-77
2021/10/08 00:54:21;;;;;;;17.90;10.68;;;;;;;10.79;47.07;102223.50;3376522;29;20041;-76
2021/10/08 00:56:01;;;;;;;17.17;10.77;;;;;;;10.77;47.06;102224.59;3373640;29;20183;-75
2021/10/08 00:57:45;;;;;;;23.73;13.85;;;;;;;10.73;47.21;102224.00;3375992;29;20064;-76
2021/10/08 00:59:27;;;;;;;27.85;14.27;;;;;;;10.70;47.15;102225.13;3376095;29;20694;-77
2021/10/08 01:01:08;;;;;;;26.50;13.80;;;;;;;10.73;47.15;102226.66;3376469;29;20048;-79
2021/10/08 01:02:49;;;;;;;33.08;14.77;;;;;;;10.72;47.17;102225.00;3375533;29;20548;-79
2021/10/08 01:04:30;;;;;;;25.02;13.65;;;;;;;10.66;47.38;102217.50;3398964;29;20169;-77
2021/10/08 01:06:11;;;;;;;19.88;12.60;;;;;;;10.65;47.48;102222.00;3363193;29;20053;-77
2021/10/08 01:07:52;;;;;;;24.63;13.13;;;;;;;10.68;47.36;102231.56;3373634;29;20169;-76
2021/10/08 01:09:34;;;;;;;19.13;12.02;;;;;;;10.66;47.38;102229.03;3362409;29;20289;-76
2021/10/08 01:11:19;;;;;;;19.50;11.63;;;;;;;10.63;47.36;102223.09;3382970;29;20095;-76
2021/10/08 01:13:01;;;;;;;22.33;12.38;;;;;;;10.63;47.49;102231.09;3378295;29;20131;-78
2021/10/08 01:14:43;;;;;;;24.67;12.18;;;;;;;10.60;47.59;102228.72;3374795;29;20135;-79
2021/10/08 01:16:23;;;;;;;26.13;11.95;;;;;;;10.57;47.80;102223.66;3368524;29;20623;-76
2021/10/08 01:18:06;;;;;;;16.50;11.68;;;;;;;10.53;47.54;102222.22;3359774;29;20051;-74
2021/10/08 01:19:47;;;;;;;17.93;12.07;;;;;;;10.54;47.70;102235.41;3385474;29;20080;-76
2021/10/08 01:21:28;;;;;;;20.38;11.60;;;;;;;10.54;47.54;102237.25;3368074;29;20298;-76
2021/10/08 01:23:10;;;;;;;20.88;12.70;;;;;;;10.51;47.48;102234.81;3387998;29;21054;-76
2021/10/08 01:24:57;;;;;;;21.50;11.57;;;;;;;10.48;47.63;102233.28;3363329;29;20497;-76
2021/10/08 01:26:38;;;;;;;18.65;12.73;;;;;;;10.45;47.41;102242.41;3361347;29;20106;-73
2021/10/08 01:28:19;;;;;;;16.58;10.73;;;;;;;10.46;47.80;102238.75;3372394;29;20381;-78
2021/10/08 01:30:02;;;;;;;20.35;11.73;;;;;;;10.42;47.78;102236.47;3362176;29;20108;-76
2021/10/08 01:31:54;;;;;;;22.88;12.48;;;;;;;10.41;47.96;102242.78;3374107;29;20041;-75
2021/10/08 01:33:35;;;;;;;19.45;10.90;;;;;;;10.37;47.91;102236.84;3363815;29;20056;-76
2021/10/08 01:35:16;;;;;;;20.88;11.32;;;;;;;10.37;47.92;102241.34;3361954;29;20065;-75
2021/10/08 01:36:58;;;;;;;22.83;12.02;;;;;;;10.36;48.01;102245.84;3360509;29;20048;-75
2021/10/08 01:38:39;;;;;;;18.30;11.95;;;;;;;10.35;47.87;102240.63;3362962;29;20040;-74
2021/10/08 01:40:20;;;;;;;20.60;12.32;;;;;;;10.34;47.92;102238.94;3361869;29;20053;-75
2021/10/08 01:42:06;;;;;;;19.55;12.02;;;;;;;10.31;47.98;102240.03;3362389;29;20049;-75
2021/10/08 01:43:48;;;;;;;21.17;12.50;;;;;;;10.26;48.00;102236.91;3362699;29;20051;-74
2021/10/08 01:45:30;;;;;;;19.35;11.25;;;;;;;10.23;48.06;102237.16;3387865;29;20047;-74
2021/10/08 01:47:11;;;;;;;17.30;11.63;;;;;;;10.20;48.07;102227.59;3378294;29;20154;-74
2021/10/08 01:48:51;;;;;;;16.85;12.27;;;;;;;10.21;48.17;102231.94;3361477;29;20105;-75
2021/10/08 01:50:35;;;;;;;19.52;12.23;;;;;;;10.19;48.25;102225.91;3385600;29;20088;-75
2021/10/08 01:52:17;;;;;;;15.73;10.60;;;;;;;10.20;47.92;102232.09;3364303;29;20107;-78
2021/10/08 01:54:01;;;;;;;21.15;12.63;;;;;;;10.16;47.97;102227.97;3372451;29;20049;-75
2021/10/08 01:55:42;;;;;;;20.83;13.70;;;;;;;10.17;48.29;102229.66;3365191;29;20485;-75
2021/10/08 01:57:25;;;;;;;27.70;14.27;;;;;;;10.15;48.37;102224.47;3364234;29;20044;-75
2021/10/08 01:59:08;;;;;;;23.42;12.52;;;;;;;10.16;48.44;102235.97;3375109;29;20052;-73
2021/10/08 02:00:50;;;;;;;17.25;12.88;;;;;;;10.15;48.41;102223.63;3361928;29;20060;-72
2021/10/08 02:02:47;;;;;;;20.00;11.95;;;;;;;10.19;48.30;102230.38;3361510;29;20043;-75
2021/10/08 02:04:33;;;;;;;24.45;13.27;;;;;;;10.19;47.93;102219.72;3362671;29;20083;-75
2021/10/08 02:06:14;;;;;;;24.38;14.20;;;;;;;10.18;47.99;102229.53;3361651;29;20045;-74
2021/10/08 02:07:55;;;;;;;18.67;12.57;;;;;;;10.16;48.15;102217.31;3363643;29;20048;-75
2021/10/08 02:10:01;;;;;;;23.73;13.68;;;;;;;10.11;47.97;102227.53;3363147;29;20148;-78
2021/10/08 02:11:43;;;;;;;21.13;13.70;;;;;;;10.07;48.12;102226.06;3387508;29;20531;-78
2021/10/08 02:13:26;;;;;;;28.23;12.93;;;;;;;10.04;48.21;102225.38;3382254;29;20088;-76
2021/10/08 02:15:07;;;;;;;22.00;13.10;;;;;;;10.07;48.43;102228.75;3374617;29;20135;-74
2021/10/08 02:16:48;;;;;;;27.65;13.00;;;;;;;10.07;48.46;102228.75;3372047;29;20124;-75
2021/10/08 02:18:29;;;;;;;22.67;14.05;;;;;;;10.05;48.22;102219.06;3396435;29;20098;-76
2021/10/08 02:20:12;;;;;;;22.30;13.05;;;;;;;10.03;48.22;102226.34;3377022;29;20044;-77
2021/10/08 02:21:54;;;;;;;30.48;13.70;;;;;;;10.07;48.23;102226.06;3398414;29;20074;-76
2021/10/08 02:23:37;;;;;;;24.30;13.50;;;;;;;10.05;48.39;102219.06;3378848;29;20049;-76
2021/10/08 02:25:18;;;;;;;24.83;13.05;;;;;;;10.04;48.44;102222.72;3361950;29;20060;-80
2021/10/08 02:27:00;;;;;;;19.58;12.55;;;;;;;10.03;48.15;102226.34;3370911;29;20508;-79
2021/10/08 02:28:44;;;;;;;21.85;13.85;;;;;;;9.99;48.40;102224.94;3399198;29;20055;-79
2021/10/08 02:30:25;;;;;;;22.35;14.45;;;;;;;9.96;48.34;102214.50;3391004;29;20460;-79
2021/10/08 02:32:06;;;;;;;20.30;13.88;;;;;;;9.97;48.39;102218.03;3362403;29;20177;-80
2021/10/08 02:33:48;;;;;;;21.80;12.63;;;;;;;9.98;48.48;102217.88;3395556;29;20602;-80
2021/10/08 02:35:29;;;;;;;23.80;14.45;;;;;;;10.00;48.42;102210.63;3377420;29;20585;-77
2021/10/08 02:37:10;;;;;;;22.13;13.20;;;;;;;9.97;48.59;102208.22;3361751;29;20076;-78
2021/10/08 02:38:51;;;;;;;25.05;13.80;;;;;;;10.00;48.55;102209.78;3367497;29;20041;-76
2021/10/08 02:40:32;;;;;;;35.97;13.68;;;;;;;10.00;48.59;102207.94;3384871;29;20136;-77
2021/10/08 02:42:13;;;;;;;19.80;13.30;;;;;;;9.96;48.42;102211.84;3377867;29;20496;-77
2021/10/08 02:43:55;;;;;;;22.02;13.05;;;;;;;9.99;48.28;102208.06;3374788;29;20432;-78
2021/10/08 02:45:36;;;;;;;18.85;13.18;;;;;;;9.97;48.45;102210.88;3398104;29;20043;-77
2021/10/08 02:47:16;;;;;;;21.23;13.88;;;;;;;9.94;48.42;102211.13;3376818;29;20136;-79
2021/10/08 02:48:57;;;;;;;21.00;14.13;;;;;;;9.92;48.49;102210.41;3373490;29;20044;-77
2021/10/08 02:50:38;;;;;;;19.60;13.98;;;;;;;9.93;48.75;102212.09;3375335;29;20048;-78
2021/10/08 02:52:23;;;;;;;24.50;13.40;;;;;;;9.93;48.63;102208.59;3374322;29;20444;-76
2021/10/08 02:54:03;;;;;;;30.55;18.08;;;;;;;9.91;48.56;102215.84;3358679;29;20052;-78
2021/10/08 02:55:44;;;;;;;28.52;16.27;;;;;;;9.89;48.45;102213.34;3368873;29;20063;-79
2021/10/08 02:57:25;;;;;;;22.98;14.13;;;;;;;9.88;48.54;102216.13;3398078;29;20559;-79
2021/10/08 02:59:05;;;;;;;22.63;13.60;;;;;;;9.80;48.67;102206.09;3376612;29;20477;-77
2021/10/08 03:00:46;;;;;;;24.17;13.98;;;;;;;9.81;49.04;102221.13;3373914;29;20076;-78
2021/10/08 03:02:27;;;;;;;22.60;14.23;;;;;;;9.75;48.96;102217.13;3374221;29;20077;-79
2021/10/08 03:04:07;;;;;;;25.40;14.75;;;;;;;9.75;48.76;102213.63;3363512;29;20457;-79
2021/10/08 03:05:48;;;;;;;24.08;15.52;;;;;;;9.75;48.86;102213.63;3386365;29;20499;-77
2021/10/08 03:07:29;;;;;;;24.05;14.35;;;;;;;9.75;48.90;102219.78;3387508;29;20535;-76
2021/10/08 03:09:10;;;;;;;24.92;14.80;;;;;;;9.74;49.08;102225.25;3372059;29;20127;-78
2021/10/08 03:10:51;;;;;;;29.48;15.18;;;;;;;9.70;48.88;102224.66;3358749;29;20060;-78
2021/10/08 03:12:32;;;;;;;20.33;14.55;;;;;;;9.65;49.02;102218.03;3371842;29;20135;-77
2021/10/08 03:14:13;;;;;;;23.60;13.45;;;;;;;9.67;48.84;102224.91;3400164;29;20063;-78
2021/10/08 03:15:54;;;;;;;29.63;13.93;;;;;;;9.67;49.14;102227.56;3376750;29;20041;-79
2021/10/08 03:17:35;;;;;;;23.75;14.40;;;;;;;9.65;49.16;102221.53;3384397;29;20503;-75
2021/10/08 03:19:16;;;;;;;23.45;14.18;;;;;;;9.65;49.00;102223.34;3372191;29;20139;-77
2021/10/08 03:20:57;;;;;;;26.88;14.93;;;;;;;9.65;49.16;102228.66;3384628;29;20048;-76
2021/10/08 03:22:39;;;;;;;20.45;12.98;;;;;;;9.63;49.18;102223.50;3374487;29;20045;-76
2021/10/08 03:24:20;;;;;;;26.75;14.73;;;;;;;9.65;49.16;102221.53;3384395;29;20044;-77
2021/10/08 03:26:00;;;;;;;23.15;14.23;;;;;;;9.66;49.14;102225.91;3374091;29;20040;-77
2021/10/08 03:27:42;;;;;;;26.33;14.35;;;;;;;9.65;49.00;102226.84;3371251;29;20168;-77
2021/10/08 03:29:23;;;;;;;32.65;15.77;;;;;;;9.68;49.32;102225.75;3369951;29;20725;-77
2021/10/08 03:31:04;;;;;;;22.30;13.98;;;;;;;9.61;49.08;102220.09;3374937;29;20530;-77
2021/10/08 03:32:46;;;;;;;21.98;14.35;;;;;;;9.66;49.13;102219.72;3386874;29;20092;-76
2021/10/08 03:34:27;;;;;;;23.58;13.82;;;;;;;9.67;49.28;102230.25;3374357;29;20457;-77
2021/10/08 03:36:12;;;;;;;20.92;13.90;;;;;;;9.64;48.91;102229.66;3371822;29;20049;-77
2021/10/08 03:37:58;;;;;;;24.48;14.65;;;;;;;9.63;49.25;102227.94;3375108;29;20041;-78
2021/10/08 03:39:42;;;;;;;25.48;14.18;;;;;;;9.62;49.21;102237.75;3397916;29;20357;-77
2021/10/08 03:41:23;;;;;;;26.50;14.10;;;;;;;9.60;49.25;102229.91;3379392;29;20041;-76
2021/10/08 03:43:04;;;;;;;25.80;14.30;;;;;;;9.59;49.23;102232.69;3377445;29;20048;-79
2021/10/08 03:44:53;;;;;;;22.85;13.93;;;;;;;9.54;49.26;102229.56;3376811;29;20128;-77
2021/10/08 03:46:39;;;;;;;24.48;15.05;;;;;;;9.55;49.35;102236.56;3377404;29;20092;-75
2021/10/08 03:50:12;;;;;;;;;;;;;;;9.69;49.04;102240.78;3374990;29;20117;-75
2021/10/08 03:51:54;;;;;;;28.45;14.50;;;;;;;9.63;49.03;102239.47;3376486;29;19931;-76
2021/10/08 03:53:34;;;;;;;19.63;13.68;;;;;;;9.62;49.38;102237.75;3377008;29;20482;-76
2021/10/08 03:55:15;;;;;;;27.83;14.15;;;;;;;9.59;49.37;102238.84;3376513;29;20048;-76
2021/10/08 03:56:56;;;;;;;23.30;14.65;;;;;;;9.54;49.33;102235.72;3377179;29;20513;-76
2021/10/08 03:58:37;;;;;;;31.75;15.35;;;;;;;9.50;49.43;102239.63;3376826;29;20514;-78
2021/10/08 04:00:17;;;;;;;22.70;13.85;;;;;;;9.47;49.43;102239.84;3368927;29;20042;-79
2021/10/08 04:02:07;;;;;;;20.02;14.77;;;;;;;9.49;49.72;102247.72;3377391;29;20460;-77
2021/10/08 04:03:48;;;;;;;23.70;13.90;;;;;;;9.48;49.59;102236.22;3376354;29;20041;-77
2021/10/08 04:05:29;;;;;;;24.23;13.93;;;;;;;9.49;49.86;102234.41;3373750;29;20041;-77
2021/10/08 04:07:10;;;;;;;22.55;13.20;;;;;;;9.51;49.61;102235.97;3373898;29;20060;-78
2021/10/08 04:08:52;;;;;;;21.98;14.82;;;;;;;9.52;49.48;102239.47;3387174;29;20040;-77
2021/10/08 04:10:33;;;;;;;23.23;14.43;;;;;;;9.48;49.44;102235.38;3374455;29;20436;-79
2021/10/08 04:12:14;;;;;;;25.50;14.82;;;;;;;9.47;49.59;102234.50;3398961;29;20050;-77
2021/10/08 04:13:55;;;;;;;29.48;15.05;;;;;;;9.48;49.48;102241.56;3378606;29;20587;-78
2021/10/08 04:15:36;;;;;;;31.38;15.48;;;;;;;9.47;49.52;102241.66;3371762;29;20048;-78
2021/10/08 04:17:17;;;;;;;25.13;15.77;;;;;;;9.43;49.58;102243.75;3375779;29;20088;-76
2021/10/08 04:18:58;;;;;;;24.42;14.43;;;;;;;9.45;49.64;102240.94;3373560;29;20040;-75
2021/10/08 04:20:41;;;;;;;25.27;15.63;;;;;;;9.44;49.55;102245.41;3374274;29;20041;-77
2021/10/08 04:22:21;;;;;;;27.85;14.55;;;;;;;9.43;49.78;102243.75;3386253;29;20063;-78
2021/10/08 04:24:02;;;;;;;25.98;14.18;;;;;;;9.41;49.67;102245.69;3375889;29;20547;-78
2021/10/08 04:25:44;;;;;;;24.25;14.20;;;;;;;9.38;49.76;102240.59;3373155;29;20052;-78
2021/10/08 04:27:25;;;;;;;;;;;;;;;9.52;49.56;102255.44;3360678;29;20502;-72
2021/10/08 04:29:06;;;;;;;27.10;13.65;;;;;;;9.47;49.50;102250.50;3373566;29;19963;-73
2021/10/08 04:30:50;;;;;;;29.63;14.57;;;;;;;9.51;49.47;102251.09;3384460;29;20104;-75
2021/10/08 04:32:31;;;;;;;28.02;15.45;;;;;;;9.52;49.53;102242.13;3375671;29;20048;-77
2021/10/08 04:34:12;;;;;;;29.05;15.60;;;;;;;9.55;49.66;102253.41;3372678;29;20048;-78
2021/10/08 04:36:00;;;;;;;25.35;15.23;;;;;;;9.59;49.45;102248.66;3362120;29;20067;-78
2021/10/08 04:37:42;;;;;;;29.10;15.05;;;;;;;9.65;49.46;102252.63;3361882;29;20053;-78
2021/10/08 04:39:25;;;;;;;23.60;14.75;;;;;;;9.65;49.60;102237.50;3360165;29;20135;-79
2021/10/08 04:41:07;;;;;;;23.55;13.98;;;;;;;9.73;49.46;102248.41;3350849;29;20041;-77
2021/10/08 04:42:48;;;;;;;24.23;15.00;;;;;;;9.78;49.43;102237.34;3357706;29;20052;-74
2021/10/08 04:44:32;;;;;;;23.15;13.43;;;;;;;9.89;49.38;102244.47;3373261;29;20559;-74
2021/10/08 04:46:14;;;;;;;18.38;13.25;;;;;;;9.97;49.21;102245.50;3349521;29;20053;-73
2021/10/08 04:47:54;;;;;;;25.40;13.85;;;;;;;10.02;48.96;102237.97;3360348;29;20055;-74
2021/10/08 04:49:36;;;;;;;29.67;15.15;;;;;;;10.13;48.96;102246.91;3360316;29;20064;-76
2021/10/08 04:51:18;;;;;;;30.00;15.33;;;;;;;10.15;49.00;102253.78;3373540;29;20036;-74
2021/10/08 04:52:58;;;;;;;26.55;15.05;;;;;;;10.16;48.96;102251.97;3351659;29;20435;-74
2021/10/08 04:54:39;;;;;;;24.75;14.00;;;;;;;10.18;48.77;102250.88;3363314;29;20083;-75
2021/10/08 04:56:20;;;;;;;21.88;12.02;;;;;;;10.37;50.37;102249.34;3363929;29;20041;-69
2021/10/08 04:58:00;;;;;;;23.08;12.98;;;;;;;10.74;51.31;102251.50;3372907;29;20053;-71
2021/10/08 04:59:41;;;;;;;16.20;10.48;;;;;;;11.20;51.87;102248.34;3362771;29;20041;-70
2021/10/08 05:01:22;;;;;;;21.70;10.95;;;;;;;11.69;51.88;102249.31;3360842;29;20072;-70
2021/10/08 05:03:07;;;;;;;27.35;12.88;;;;;;;12.16;51.49;102240.66;3359998;29;20544;-73
2021/10/08 05:04:47;;;;;;;19.60;11.88;;;;;;;12.55;50.12;102243.25;3359869;29;20045;-72
2021/10/08 05:06:28;;;;;;;20.27;12.07;;;;;;;12.87;48.58;102253.56;3359734;29;20520;-69
2021/10/08 05:08:11;;;;;;;23.25;12.90;;;;;;;13.05;47.81;102246.44;3362347;29;20101;-70
2021/10/08 05:09:52;;;;;;;18.80;11.77;;;;;;;13.20;47.48;102248.66;3359928;29;20049;-71
2021/10/08 05:11:33;;;;;;;20.63;13.30;;;;;;;13.37;46.75;102252.38;3373438;29;20041;-70
2021/10/08 05:13:15;;;;;;;24.83;13.98;;;;;;;13.53;46.19;102255.25;3375276;29;20182;-71
2021/10/08 05:14:56;;;;;;;23.70;14.18;;;;;;;13.59;45.16;102245.78;3362526;29;20045;-69
2021/10/08 05:16:38;;;;;;;24.85;12.32;;;;;;;13.68;45.26;102250.22;3346475;29;20140;-68
2021/10/08 05:18:18;;;;;;;22.65;13.10;;;;;;;13.83;44.61;102248.69;3357314;29;20064;-69
2021/10/08 05:20:00;;;;;;;36.55;13.88;;;;;;;14.08;44.35;102248.94;3385821;29;20050;-69
2021/10/08 05:21:54;;;;;;;26.73;14.35;;;;;;;14.38;43.95;102251.19;3364318;29;20047;-71
2021/10/08 05:23:37;;;;;;;21.85;13.00;;;;;;;14.65;43.38;102259.28;3362432;29;20493;-71
2021/10/08 05:25:18;;;;;;;22.55;11.18;;;;;;;14.97;43.52;102258.59;3359587;29;20052;-70
2021/10/08 05:26:59;;;;;;;23.70;13.70;;;;;;;15.34;42.71;102260.13;3359292;29;20053;-70
2021/10/08 05:28:41;;;;;;;36.22;14.13;;;;;;;15.54;41.43;102256.16;3395713;29;20047;-73
2021/10/08 05:30:22;;;;;;;23.25;14.73;;;;;;;15.50;40.59;102260.16;3379664;29;20048;-73
2021/10/08 05:32:03;;;;;;;24.58;14.88;;;;;;;15.32;40.42;102256.75;3370626;29;20044;-72
2021/10/08 05:33:44;;;;;;;21.77;13.35;;;;;;;15.16;40.42;102257.53;3368740;29;20100;-73
2021/10/08 05:35:26;;;;;;;25.80;15.55;;;;;;;15.00;40.69;102247.56;3363153;29;20536;-71
2021/10/08 05:37:06;;;;;;;24.50;15.85;;;;;;;14.79;40.59;102246.13;3361913;29;20180;-71
2021/10/08 05:38:48;;;;;;;31.27;14.93;;;;;;;14.76;40.67;102254.47;3362666;29;20101;-71
2021/10/08 05:40:29;;;;;;;29.75;15.82;;;;;;;14.79;40.74;102251.50;3363328;29;20312;-73
2021/10/08 05:42:10;;;;;;;27.90;15.10;;;;;;;14.86;40.64;102250.84;3376516;29;20036;-71
2021/10/08 05:43:50;;;;;;;25.75;14.50;;;;;;;15.01;40.40;102251.94;3400736;29;20043;-70
2021/10/08 05:45:31;;;;;;;25.20;14.10;;;;;;;15.20;40.21;102254.34;3390299;29;20424;-70
2021/10/08 05:47:12;;;;;;;27.67;14.88;;;;;;;15.40;39.38;102251.41;3400424;29;20284;-72
2021/10/08 05:48:53;;;;;;;32.83;15.18;;;;;;;15.51;38.77;102251.09;3376833;29;20072;-72
2021/10/08 05:50:34;;;;;;;24.55;14.60;;;;;;;15.60;38.70;102260.88;3385222;29;20456;-69
2021/10/08 05:52:15;;;;;;;26.83;15.55;;;;;;;15.77;38.50;102259.06;3371830;29;20120;-71
2021/10/08 05:53:55;;;;;;;23.25;13.52;;;;;;;16.01;38.14;102254.75;3372192;29;20086;-71
2021/10/08 05:55:37;;;;;;;22.65;14.18;;;;;;;16.25;37.79;102254.75;3364982;29;20419;-70
2021/10/08 05:57:19;;;;;;;26.70;14.00;;;;;;;16.45;37.36;102257.94;3387249;29;20044;-71
2021/10/08 05:59:00;;;;;;;31.65;14.13;;;;;;;16.72;37.11;102255.84;3364506;29;20412;-72
2021/10/08 06:00:41;;;;;;;19.73;13.57;;;;;;;17.00;36.47;102259.84;3366539;29;20047;-71
2021/10/08 06:02:21;;;;;;;25.65;13.13;;;;;;;17.31;35.92;102248.25;3369595;29;20415;-71
2021/10/08 06:04:06;;;;;;;27.40;13.18;;;;;;;17.57;35.49;102249.81;3396698;29;20148;-71
2021/10/08 06:05:48;;;;;;;24.65;13.27;;;;;;;17.77;34.79;102255.59;3375277;29;21059;-71
2021/10/08 06:07:28;;;;;;;23.33;14.20;;;;;;;17.97;34.30;102259.53;3374157;29;20095;-72
2021/10/08 06:09:10;;;;;;;21.92;12.65;;;;;;;18.22;34.47;102249.34;3374649;29;20048;-72
2021/10/08 06:10:52;;;;;;;23.98;13.43;;;;;;;18.37;34.14;102256.66;3384979;29;20052;-72
2021/10/08 06:12:35;;;;;;;26.65;13.20;;;;;;;18.55;33.37;102254.44;3383929;29;20036;-70
2021/10/08 06:14:16;;;;;;;21.35;14.18;;;;;;;18.66;33.08;102250.44;3363721;29;20049;-69
2021/10/08 06:15:57;;;;;;;26.23;12.82;;;;;;;18.68;33.14;102254.66;3385683;29;20040;-71
2021/10/08 06:17:38;;;;;;;22.15;12.65;;;;;;;18.66;32.93;102251.28;3363997;29;20096;-72
2021/10/08 06:19:19;;;;;;;17.58;11.95;;;;;;;18.70;32.98;102252.59;3383686;29;20484;-71
2021/10/08 06:21:00;;;;;;;17.90;11.35;;;;;;;18.86;32.84;102257.00;3374194;29;20159;-70
2021/10/08 06:22:45;;;;;;;22.90;14.07;;;;;;;18.92;32.65;102258.13;3395762;29;20067;-70
2021/10/08 06:24:26;;;;;;;27.88;13.80;;;;;;;18.94;32.72;102247.97;3375742;29;20587;-70
2021/10/08 06:26:07;;;;;;;28.00;15.33;;;;;;;19.08;32.56;102255.25;3383028;29;20040;-70
2021/10/08 06:27:51;;;;;;;22.30;12.60;;;;;;;19.29;32.91;102251.78;3372468;29;20139;-70
2021/10/08 06:29:33;;;;;;;20.52;11.82;;;;;;;19.42;32.19;102250.25;3357253;29;20167;-71
2021/10/08 06:31:14;;;;;;;15.57;10.50;;;;;;;19.48;32.23;102261.13;3381993;29;20047;-72
2021/10/08 06:32:58;;;;;;;16.48;10.23;;;;;;;19.49;31.91;102246.59;3372548;29;20100;-72
2021/10/08 06:34:39;;;;;;;22.40;10.33;;;;;;;19.68;32.13;102255.16;3375159;29;20508;-73
2021/10/08 06:36:20;;;;;;;19.30;10.13;;;;;;;19.98;32.01;102256.72;3400334;29;20079;-72
2021/10/08 06:38:01;;;;;;;19.77;10.70;;;;;;;20.32;31.16;102247.00;3388575;29;20413;-72
2021/10/08 06:39:43;;;;;;;20.53;9.70;;;;;;;20.64;30.70;102244.75;3362696;29;20051;-72
2021/10/08 06:41:23;;;;;;;17.53;9.80;;;;;;;20.95;29.89;102246.19;3374394;29;20816;-71
2021/10/08 06:43:11;;;;;;;19.23;9.63;;;;;;;21.28;29.51;102246.34;3362105;29;20132;-70
2021/10/08 06:45:14;;;;;;;19.58;10.15;;;;;;;21.56;28.67;102249.81;3361871;29;20122;-71
2021/10/08 06:46:55;;;;;;;20.97;9.30;;;;;;;21.86;28.61;102248.59;3361162;29;20048;-71
2021/10/08 06:48:36;;;;;;;19.30;10.23;;;;;;;22.13;28.20;102254.91;3361777;29;20052;-71
2021/10/08 06:50:18;;;;;;;13.90;9.40;;;;;;;22.39;27.93;102262.25;3360986;29;20052;-71
2021/10/08 06:51:59;;;;;;;17.73;9.45;;;;;;;22.68;27.47;102249.22;3362078;29;20045;-71
2021/10/08 06:53:40;;;;;;;20.33;11.02;;;;;;;23.01;27.09;102254.63;3356181;29;20479;-71
2021/10/08 06:55:22;;;;;;;15.75;9.90;;;;;;;23.32;26.79;102253.88;3394739;29;20519;-69
2021/10/08 06:57:03;;;;;;;;;;;;;;;23.77;27.07;102256.56;3376693;29;20044;-70
2021/10/08 06:58:47;;;;;;;18.55;10.27;;;;;;;23.83;26.57;102258.41;3382859;29;19935;-70
2021/10/08 07:00:28;;;;;;;23.97;12.40;;;;;;;23.85;25.84;102258.19;3372473;29;20060;-72
2021/10/08 07:02:09;;;;;;;24.58;11.52;;;;;;;23.79;25.96;102256.34;3364292;29;20037;-70
2021/10/08 07:03:51;;;;;;;21.23;10.25;;;;;;;23.82;26.23;102264.91;3362650;29;20096;-70
2021/10/08 07:05:32;;;;;;;20.90;10.73;;;;;;;23.92;25.98;102257.09;3374921;29;20409;-72
2021/10/08 07:07:15;;;;;;;17.80;11.80;;;;;;;24.00;25.82;102260.59;3373696;29;20064;-70
2021/10/08 07:09:03;;;;;;;23.13;12.25;;;;;;;23.94;25.56;102257.69;3365975;29;20092;-71
2021/10/08 07:10:44;;;;;;;19.33;11.70;;;;;;;23.94;25.02;102246.81;3364500;29;20057;-71
2021/10/08 07:12:27;;;;;;;23.23;12.37;;;;;;;24.13;24.98;102255.03;3364348;29;20581;-72
2021/10/08 07:14:07;;;;;;;18.77;11.55;;;;;;;24.42;24.62;102261.72;3364494;29;20036;-69
2021/10/08 07:15:50;;;;;;;22.23;12.33;;;;;;;24.76;24.46;102254.91;3366933;29;20047;-70
2021/10/08 07:17:31;;;;;;;21.90;11.25;;;;;;;25.02;23.84;102252.94;3365391;29;20151;-69
2021/10/08 07:19:13;;;;;;;15.63;10.97;;;;;;;25.33;23.78;102256.56;3364449;29;20487;-69
2021/10/08 07:20:54;;;;;;;24.38;12.10;;;;;;;25.68;23.28;102253.97;3370528;29;20085;-72
2021/10/08 07:22:36;;;;;;;27.40;11.83;;;;;;;25.96;23.20;102258.00;3364380;29;20051;-71
2021/10/08 07:24:17;;;;;;;23.20;13.30;;;;;;;26.14;22.75;102259.81;3371183;29;20053;-72
2021/10/08 07:25:58;;;;;;;;;;;;;;;26.43;22.97;102258.84;3369767;29;20037;-70
2021/10/08 07:27:40;;;;;;;22.02;10.55;;;;;;;26.36;22.77;102258.16;3389334;29;19938;-72
2021/10/08 07:29:22;;;;;;;22.15;11.00;;;;;;;26.58;22.78;102261.16;3370091;29;20052;-72
2021/10/08 07:31:03;;;;;;;;;;;;;;;27.06;23.19;102265.50;3369286;29;20538;-70
2021/10/08 07:32:46;;;;;;;22.10;11.85;;;;;;;26.90;22.08;102264.34;3374929;29;20280;-70
2021/10/08 07:34:27;;;;;;;20.20;12.77;;;;;;;26.93;21.67;102258.38;3376769;29;20112;-71
2021/10/08 07:36:09;;;;;;;29.47;11.27;;;;;;;26.89;21.49;102262.66;3376961;29;20040;-71
2021/10/08 07:37:51;;;;;;;17.48;9.73;;;;;;;27.01;21.60;102259.09;3376989;29;20095;-71
2021/10/08 07:39:31;;;;;;;;;;;;;;;27.55;21.65;102262.38;3377348;29;20069;-70
2021/10/08 07:41:13;;;;;;;21.55;10.38;;;;;;;27.74;20.86;102268.47;3377140;29;19991;-70
2021/10/08 07:42:54;;;;;;;16.00;10.35;;;;;;;27.93;20.88;102266.34;3377338;29;20451;-70
2021/10/08 07:44:35;;;;;;;11.02;9.43;;;;;;;28.22;20.65;102264.38;3376892;29;20076;-70
2021/10/08 07:46:15;;;;;;;15.83;9.30;;;;;;;28.46;20.61;102267.78;3376791;29;20497;-72
2021/10/08 07:47:56;;;;;;;13.40;8.30;;;;;;;28.79;20.55;102279.78;3376326;29;20127;-70